Time;durP1;ratioP1;P1;durP2;ratioP2;P2;SDS_P1;SDS_P2;PMS_P1;PMS_P2;Temp;Humidity;BMP_temperature;BMP_pressure;BME280_temperature;BME280_humidity;BME280_pressure;Samples;Min_cycle;Max_cycle;Signal;HPM_P1;HPM_P2
2021/12/28 00:01:31;;;;;;;;;;;4.80;99.90;;;;;;5122720;27;19919;-71
2021/12/28 00:03:57;;;;;;;;;;;4.80;99.90;;;;;;5122423;27;19971;-71
2021/12/28 00:06:22;;;;;;;;;;;4.90;99.90;;;;;;5155323;27;20281;-71
2021/12/28 00:08:48;;;;;;;;;;;4.90;99.90;;;;;;5127759;27;19923;-71
2021/12/28 00:11:13;;;;;;;;;;;4.90;99.90;;;;;;5125059;27;19919;-71
2021/12/28 00:13:40;;;;;;;;;;;4.90;99.90;;;;;;5148045;27;19930;-70
2021/12/28 00:18:32;;;;;;;;;;;5.00;99.90;;;;;;5123504;27;19934;-71
2021/12/28 00:20:59;;;;;;;;;;;5.00;99.90;;;;;;5122609;27;20305;-70
2021/12/28 00:23:30;;;;;;;;;;;5.00;99.90;;;;;;5114598;27;19962;-71
2021/12/28 00:25:56;;;;;;;;;;;5.10;99.90;;;;;;5120465;27;19919;-71
2021/12/28 00:28:22;;;;;;;;;;;5.10;99.90;;;;;;5119776;27;19980;-70
2021/12/28 00:30:48;;;;;;;;;;;5.10;99.90;;;;;;5110244;27;20313;-70
2021/12/28 00:33:14;;;;;;;;;;;5.10;99.90;;;;;;5126663;27;19920;-71
2021/12/28 00:35:40;;;;;;;;;;;5.10;99.90;;;;;;5127518;27;20604;-70
2021/12/28 00:38:07;;;;;;;;;;;5.10;99.90;;;;;;5112457;27;20392;-71
2021/12/28 00:40:33;;;;;;;;;;;5.10;99.90;;;;;;5129292;27;19919;-71
2021/12/28 00:42:59;;;;;;;;;;;5.10;99.90;;;;;;5115405;27;19930;-70
2021/12/28 00:45:24;;;;;;;;;;;5.20;99.90;;;;;;5148556;27;19923;-71
2021/12/28 00:47:50;;;;;;;;;;;5.20;99.90;;;;;;5117250;27;19920;-70
2021/12/28 00:50:16;;;;;;;;;;;5.20;99.90;;;;;;5121678;27;19920;-71
2021/12/28 00:52:41;;;;;;;;;;;5.20;99.90;;;;;;5120848;27;19919;-71
2021/12/28 00:55:08;;;;;;;;;;;5.10;99.90;;;;;;5123236;27;19919;-71
2021/12/28 00:57:33;;;;;;;;;;;5.20;99.90;;;;;;5128747;27;19919;-71
2021/12/28 00:59:59;;;;;;;;;;;5.20;99.90;;;;;;5118453;27;19923;-71
2021/12/28 01:02:24;;;;;;;;;;;5.20;99.90;;;;;;5122725;27;19927;-71
2021/12/28 01:04:50;;;;;;;;;;;5.20;99.90;;;;;;5115581;27;20377;-71
2021/12/28 01:07:15;;;;;;;;;;;5.20;99.90;;;;;;5125019;27;20382;-71
2021/12/28 01:09:42;;;;;;;;;;;5.20;99.90;;;;;;5122168;27;19952;-71
2021/12/28 01:12:08;;;;;;;;;;;5.20;99.90;;;;;;5113359;27;19924;-71
2021/12/28 01:14:34;;;;;;;;;;;5.20;99.90;;;;;;5124748;27;19923;-70
2021/12/28 01:16:59;;;;;;;;;;;5.30;99.90;;;;;;5149009;27;20014;-70
2021/12/28 01:19:25;;;;;;;;;;;5.30;99.90;;;;;;5114362;27;19972;-70
2021/12/28 01:21:51;;;;;;;;;;;5.30;99.90;;;;;;5127612;27;19920;-71
2021/12/28 01:24:18;;;;;;;;;;;5.30;99.90;;;;;;5123855;27;20310;-71
2021/12/28 01:26:44;;;;;;;;;;;5.30;99.90;;;;;;5127190;27;19951;-71
2021/12/28 01:29:09;;;;;;;;;;;5.30;99.90;;;;;;5127047;27;20000;-71
2021/12/28 01:31:37;;;;;;;;;;;5.30;99.90;;;;;;5109693;27;19962;-70
2021/12/28 01:34:07;;;;;;;;;;;5.30;99.90;;;;;;5114169;27;20014;-71
2021/12/28 01:36:32;;;;;;;;;;;5.30;99.90;;;;;;5143929;27;20061;-70
2021/12/28 01:38:59;;;;;;;;;;;5.30;99.90;;;;;;5148192;27;20045;-71
2021/12/28 01:41:24;;;;;;;;;;;5.40;99.90;;;;;;5122737;27;19923;-71
2021/12/28 01:43:57;;;;;;;;;;;5.40;99.90;;;;;;5118458;27;19924;-71
2021/12/28 01:46:23;;;;;;;;;;;5.40;99.90;;;;;;5122207;27;19971;-71
2021/12/28 01:48:48;;;;;;;;;;;5.40;99.90;;;;;;5114232;27;20329;-70
2021/12/28 01:51:17;;;;;;;;;;;5.40;99.90;;;;;;5122798;27;20785;-70
2021/12/28 01:53:43;;;;;;;;;;;5.40;99.90;;;;;;5124439;27;19920;-70
2021/12/28 01:56:11;;;;;;;;;;;5.40;99.90;;;;;;5113143;27;20385;-71
2021/12/28 01:58:37;;;;;;;;;;;5.40;99.90;;;;;;5120700;27;19920;-70
2021/12/28 02:01:03;;;;;;;;;;;5.40;99.90;;;;;;5116036;27;19927;-71
2021/12/28 02:03:30;;;;;;;;;;;5.50;99.90;;;;;;5147888;27;19920;-71
2021/12/28 02:05:55;;;;;;;;;;;5.50;99.90;;;;;;5112550;27;20057;-70
2021/12/28 02:08:21;;;;;;;;;;;5.50;99.90;;;;;;5152801;27;20056;-70
2021/12/28 02:10:48;;;;;;;;;;;5.50;99.90;;;;;;5118815;27;19964;-70
2021/12/28 02:13:14;;;;;;;;;;;5.40;99.90;;;;;;5154019;27;19931;-71
2021/12/28 02:15:39;;;;;;;;;;;5.40;99.90;;;;;;5113482;27;19989;-70
2021/12/28 02:18:06;;;;;;;;;;;5.40;99.90;;;;;;5125019;27;19954;-71
2021/12/28 02:20:32;;;;;;;;;;;5.50;99.90;;;;;;5120433;27;20386;-70
2021/12/28 02:22:57;;;;;;;;;;;5.50;99.90;;;;;;5123258;27;19919;-71
2021/12/28 02:25:23;;;;;;;;;;;5.50;99.90;;;;;;5112530;27;19923;-71
2021/12/28 02:27:49;;;;;;;;;;;5.50;99.90;;;;;;5117589;27;19929;-71
2021/12/28 02:30:16;;;;;;;;;;;5.50;99.90;;;;;;5118318;27;20008;-70
2021/12/28 02:32:42;;;;;;;;;;;5.50;99.90;;;;;;5121839;27;19927;-70
2021/12/28 02:35:10;;;;;;;;;;;5.50;99.90;;;;;;5120649;27;19919;-70
2021/12/28 02:37:36;;;;;;;;;;;5.50;99.90;;;;;;5121728;27;19927;-70
2021/12/28 02:40:03;;;;;;;;;;;5.50;99.90;;;;;;5118066;27;19919;-70
2021/12/28 02:42:29;;;;;;;;;;;5.50;99.90;;;;;;5124548;27;19920;-70
2021/12/28 02:44:55;;;;;;;;;;;5.50;99.90;;;;;;5117487;27;19934;-70
2021/12/28 02:47:21;;;;;;;;;;;5.50;99.90;;;;;;5112362;27;19958;-70
2021/12/28 02:49:46;;;;;;;;;;;5.50;99.90;;;;;;5121619;27;19969;-71
2021/12/28 02:52:12;;;;;;;;;;;5.50;99.90;;;;;;5117776;27;19919;-71
2021/12/28 02:54:38;;;;;;;;;;;5.50;99.90;;;;;;5123831;27;20561;-71
2021/12/28 02:57:04;;;;;;;;;;;5.50;99.90;;;;;;5119960;27;19923;-70
2021/12/28 02:59:30;;;;;;;;;;;5.50;99.90;;;;;;5119984;27;20358;-71
2021/12/28 03:01:56;;;;;;;;;;;5.50;99.90;;;;;;5121987;27;19919;-71
2021/12/28 03:04:24;;;;;;;;;;;5.50;99.90;;;;;;5109130;27;20025;-71
2021/12/28 03:06:50;;;;;;;;;;;5.60;99.90;;;;;;5151704;27;20572;-70
2021/12/28 03:09:18;;;;;;;;;;;5.50;99.90;;;;;;5121643;28;19919;-71
2021/12/28 03:11:44;;;;;;;;;;;5.50;99.90;;;;;;5111075;28;19924;-71
2021/12/28 03:14:10;;;;;;;;;;;5.60;99.90;;;;;;5110876;28;19943;-70
2021/12/28 03:16:36;;;;;;;;;;;5.50;99.90;;;;;;5156197;27;19919;-70
2021/12/28 03:19:01;;;;;;;;;;;5.60;99.90;;;;;;5127038;27;19928;-71
2021/12/28 03:21:27;;;;;;;;;;;5.60;99.90;;;;;;5118872;27;19979;-70
2021/12/28 03:23:54;;;;;;;;;;;5.60;99.90;;;;;;5115363;28;19955;-71
2021/12/28 03:26:20;;;;;;;;;;;5.60;99.90;;;;;;5111384;28;19923;-71
2021/12/28 03:28:46;;;;;;;;;;;5.60;99.90;;;;;;5150872;27;19953;-70
2021/12/28 03:31:13;;;;;;;;;;;5.60;99.90;;;;;;5113729;27;19947;-70
2021/12/28 03:33:39;;;;;;;;;;;5.50;99.90;;;;;;5117917;28;20271;-70
2021/12/28 03:36:05;;;;;;;;;;;5.50;99.90;;;;;;5126444;27;19919;-70
2021/12/28 03:38:31;;;;;;;;;;;5.50;99.90;;;;;;5121857;27;19923;-70
2021/12/28 03:40:56;;;;;;;;;;;5.50;99.90;;;;;;5153421;27;19926;-71
2021/12/28 03:43:22;;;;;;;;;;;5.50;99.90;;;;;;5128667;27;19916;-70
2021/12/28 03:45:48;;;;;;;;;;;5.50;99.90;;;;;;5125464;27;20885;-70
2021/12/28 03:48:14;;;;;;;;;;;5.50;99.90;;;;;;5125327;27;19926;-71
2021/12/28 03:50:40;;;;;;;;;;;5.50;99.90;;;;;;5126657;27;19923;-71
2021/12/28 03:53:07;;;;;;;;;;;5.40;99.90;;;;;;5125737;27;19919;-71
2021/12/28 03:55:33;;;;;;;;;;;5.40;99.90;;;;;;5124098;27;19923;-69
2021/12/28 03:58:00;;;;;;;;;;;5.40;99.90;;;;;;5124055;27;20018;-70
2021/12/28 04:00:27;;;;;;;;;;;5.40;99.90;;;;;;5120776;27;19930;-70
2021/12/28 04:02:53;;;;;;;;;;;5.40;99.90;;;;;;5124067;27;19919;-71
2021/12/28 04:05:18;;;;;;;;;;;5.40;99.90;;;;;;5122955;27;20286;-70
2021/12/28 04:07:44;;;;;;;;;;;5.40;99.90;;;;;;5154791;27;20007;-70
2021/12/28 04:10:11;;;;;;;;;;;5.40;99.90;;;;;;5126476;27;19968;-71
2021/12/28 04:12:37;;;;;;;;;;;5.40;99.90;;;;;;5119104;27;20013;-70
2021/12/28 04:15:04;;;;;;;;;;;5.30;99.90;;;;;;5119267;27;20010;-71
2021/12/28 04:17:31;;;;;;;;;;;5.30;99.90;;;;;;5116427;27;19919;-70
2021/12/28 04:19:57;;;;;;;;;;;5.30;99.90;;;;;;5124815;27;19919;-71
2021/12/28 04:22:23;;;;;;;;;;;5.30;99.90;;;;;;5128043;27;19923;-70
2021/12/28 04:24:48;;;;;;;;;;;5.30;99.90;;;;;;5124108;27;19984;-71
2021/12/28 04:27:14;;;;;;;;;;;5.30;99.90;;;;;;5157508;27;19926;-71
2021/12/28 04:29:40;;;;;;;;;;;5.30;99.90;;;;;;5113300;27;19928;-71
2021/12/28 04:32:06;;;;;;;;;;;5.30;99.90;;;;;;5152386;27;19919;-71
2021/12/28 04:34:31;;;;;;;;;;;5.30;99.90;;;;;;5127022;27;19923;-70
2021/12/28 04:36:57;;;;;;;;;;;5.30;99.90;;;;;;5122180;27;19919;-71
2021/12/28 04:39:23;;;;;;;;;;;5.30;99.90;;;;;;5127129;27;20370;-71
2021/12/28 04:41:48;;;;;;;;;;;5.30;99.90;;;;;;5125144;27;20366;-71
2021/12/28 04:44:14;;;;;;;;;;;5.30;99.90;;;;;;5124552;27;20614;-70
2021/12/28 04:46:40;;;;;;;;;;;5.30;99.90;;;;;;5118528;27;20015;-70
2021/12/28 04:49:05;;;;;;;;;;;5.30;99.90;;;;;;5125350;27;19926;-71
2021/12/28 04:51:31;;;;;;;;;;;5.20;99.90;;;;;;5129173;27;19919;-71
2021/12/28 04:53:59;;;;;;;;;;;5.30;99.90;;;;;;5115214;27;20251;-71
2021/12/28 04:56:25;;;;;;;;;;;5.30;99.90;;;;;;5114609;27;20023;-70
2021/12/28 04:58:50;;;;;;;;;;;5.30;99.90;;;;;;5112722;27;20476;-70
2021/12/28 05:01:16;;;;;;;;;;;5.30;99.90;;;;;;5122687;27;19923;-71
2021/12/28 05:03:42;;;;;;;;;;;5.30;99.90;;;;;;5126946;27;20401;-70
2021/12/28 05:06:07;;;;;;;;;;;5.30;99.90;;;;;;5120631;27;20278;-70
2021/12/28 05:08:33;;;;;;;;;;;5.30;99.90;;;;;;5146433;27;19954;-71
2021/12/28 05:10:58;;;;;;;;;;;5.40;99.90;;;;;;5121982;27;19923;-70
2021/12/28 05:13:24;;;;;;;;;;;5.40;99.90;;;;;;5125078;27;19923;-70
2021/12/28 05:15:50;;;;;;;;;;;5.40;99.90;;;;;;5117866;27;19979;-71
2021/12/28 05:18:16;;;;;;;;;;;5.40;99.90;;;;;;5126002;27;19926;-71
2021/12/28 05:20:42;;;;;;;;;;;5.40;99.90;;;;;;5124121;27;19920;-70
2021/12/28 05:23:08;;;;;;;;;;;5.40;99.90;;;;;;5122332;27;19944;-71
2021/12/28 05:25:33;;;;;;;;;;;5.40;99.90;;;;;;5121778;27;19919;-71
2021/12/28 05:27:59;;;;;;;;;;;5.40;99.90;;;;;;5126044;27;19923;-71
2021/12/28 05:30:25;;;;;;;;;;;5.50;99.90;;;;;;5120494;27;20006;-71
2021/12/28 05:32:50;;;;;;;;;;;5.50;99.90;;;;;;5123524;27;20025;-70
2021/12/28 05:35:16;;;;;;;;;;;5.50;99.90;;;;;;5119359;27;20011;-71
2021/12/28 05:37:42;;;;;;;;;;;5.50;99.90;;;;;;5151091;27;20436;-71
2021/12/28 05:40:09;;;;;;;;;;;5.50;99.90;;;;;;5126337;27;19958;-71
2021/12/28 05:42:35;;;;;;;;;;;5.50;99.90;;;;;;5118984;27;20462;-71
2021/12/28 05:45:00;;;;;;;;;;;5.50;99.90;;;;;;5119831;27;19923;-70
2021/12/28 05:47:26;;;;;;;;;;;5.50;99.90;;;;;;5125952;27;19958;-71
2021/12/28 05:49:51;;;;;;;;;;;5.60;99.90;;;;;;5122434;27;19927;-71
2021/12/28 05:52:17;;;;;;;;;;;5.60;99.90;;;;;;5124397;27;20017;-71
2021/12/28 05:54:43;;;;;;;;;;;5.60;99.90;;;;;;5126770;27;19954;-71
2021/12/28 05:57:08;;;;;;;;;;;5.60;99.90;;;;;;5109339;27;19937;-70
2021/12/28 05:59:34;;;;;;;;;;;5.60;99.90;;;;;;5118359;27;19920;-71
2021/12/28 06:01:59;;;;;;;;;;;5.60;99.90;;;;;;5129677;27;20132;-71
2021/12/28 06:04:25;;;;;;;;;;;5.60;99.90;;;;;;5124308;27;19919;-71
2021/12/28 06:06:51;;;;;;;;;;;5.60;99.90;;;;;;5109633;27;20465;-71
2021/12/28 06:09:16;;;;;;;;;;;5.60;99.90;;;;;;5120906;27;19938;-71
2021/12/28 06:11:42;;;;;;;;;;;5.60;99.90;;;;;;5126037;27;19919;-71
2021/12/28 06:14:07;;;;;;;;;;;5.60;99.90;;;;;;5118216;27;19942;-71
2021/12/28 06:16:34;;;;;;;;;;;5.50;99.90;;;;;;5107143;28;20359;-71
2021/12/28 06:19:00;;;;;;;;;;;5.50;99.90;;;;;;5119016;27;19948;-71
2021/12/28 06:21:26;;;;;;;;;;;5.50;99.90;;;;;;5125025;27;19942;-71
2021/12/28 06:23:51;;;;;;;;;;;5.50;99.90;;;;;;5123508;27;19920;-71
2021/12/28 06:26:17;;;;;;;;;;;5.50;99.90;;;;;;5122513;27;19926;-71
2021/12/28 06:28:42;;;;;;;;;;;5.50;99.90;;;;;;5114518;27;20026;-70
2021/12/28 06:31:08;;;;;;;;;;;5.50;99.90;;;;;;5146918;27;19919;-70
2021/12/28 06:33:34;;;;;;;;;;;5.60;99.90;;;;;;5117635;27;19923;-70
2021/12/28 06:35:59;;;;;;;;;;;5.60;99.90;;;;;;5124809;27;20006;-71
2021/12/28 06:38:24;;;;;;;;;;;5.60;99.90;;;;;;5123939;27;20002;-71
2021/12/28 06:40:50;;;;;;;;;;;5.60;99.90;;;;;;5113525;27;19958;-71
2021/12/28 06:43:16;;;;;;;;;;;5.60;99.90;;;;;;5119605;27;19920;-71
2021/12/28 06:45:41;;;;;;;;;;;5.60;99.90;;;;;;5119075;27;19927;-71
2021/12/28 06:48:07;;;;;;;;;;;5.60;99.90;;;;;;5117238;27;19935;-70
2021/12/28 06:50:32;;;;;;;;;;;5.60;99.90;;;;;;5116101;27;19966;-70
2021/12/28 06:52:58;;;;;;;;;;;5.60;99.90;;;;;;5122930;27;20006;-72
2021/12/28 06:55:23;;;;;;;;;;;5.60;99.90;;;;;;5154218;27;19924;-69
2021/12/28 06:57:49;;;;;;;;;;;5.60;99.90;;;;;;5119272;27;20026;-70
2021/12/28 07:00:16;;;;;;;;;;;5.60;99.90;;;;;;5120487;27;20306;-70
2021/12/28 07:02:42;;;;;;;;;;;5.60;99.90;;;;;;5119818;27;19923;-71
2021/12/28 07:05:08;;;;;;;;;;;5.60;99.90;;;;;;5124128;27;19919;-71
2021/12/28 07:07:33;;;;;;;;;;;5.60;99.90;;;;;;5148020;27;19925;-71
2021/12/28 07:09:59;;;;;;;;;;;5.60;99.90;;;;;;5119891;27;20002;-71
2021/12/28 07:12:25;;;;;;;;;;;5.60;99.90;;;;;;5124939;27;20030;-70
2021/12/28 07:14:50;;;;;;;;;;;5.60;99.90;;;;;;5121380;27;20531;-71
2021/12/28 07:17:16;;;;;;;;;;;5.60;99.90;;;;;;5127238;27;20457;-70
2021/12/28 07:19:41;;;;;;;;;;;5.60;99.90;;;;;;5126109;27;19926;-70
2021/12/28 07:22:07;;;;;;;;;;;5.60;99.90;;;;;;5127247;27;19920;-71
2021/12/28 07:24:32;;;;;;;;;;;5.60;99.90;;;;;;5120007;27;19920;-71
2021/12/28 07:26:58;;;;;;;;;;;5.60;99.90;;;;;;5128884;27;20030;-71
2021/12/28 07:29:24;;;;;;;;;;;5.60;99.90;;;;;;5124673;27;19923;-71
2021/12/28 07:31:50;;;;;;;;;;;5.60;99.90;;;;;;5130663;27;19934;-70
2021/12/28 07:34:15;;;;;;;;;;;5.60;99.90;;;;;;5131549;27;19929;-70
2021/12/28 07:36:41;;;;;;;;;;;5.60;99.90;;;;;;5125542;27;19919;-71
2021/12/28 07:39:06;;;;;;;;;;;5.60;99.90;;;;;;5122761;27;19919;-70
2021/12/28 07:41:32;;;;;;;;;;;5.60;99.90;;;;;;5118556;27;19974;-70
2021/12/28 07:43:58;;;;;;;;;;;5.60;99.90;;;;;;5117948;27;20575;-70
2021/12/28 07:46:23;;;;;;;;;;;5.60;99.90;;;;;;5129425;27;19924;-70
2021/12/28 07:48:49;;;;;;;;;;;5.70;99.90;;;;;;5130656;27;19919;-70
2021/12/28 07:51:14;;;;;;;;;;;5.70;99.90;;;;;;5128252;27;19937;-70
2021/12/28 07:53:40;;;;;;;;;;;5.70;99.90;;;;;;5127253;27;20282;-70
2021/12/28 07:56:05;;;;;;;;;;;5.70;99.90;;;;;;5130804;27;20278;-71
2021/12/28 07:58:31;;;;;;;;;;;5.70;99.90;;;;;;5131336;27;19957;-71
2021/12/28 08:00:58;;;;;;;;;;;5.60;99.90;;;;;;5119694;27;19938;-71
2021/12/28 08:03:24;;;;;;;;;;;5.70;99.90;;;;;;5129122;27;20006;-70
2021/12/28 08:05:50;;;;;;;;;;;5.60;99.90;;;;;;5128236;27;19965;-71
2021/12/28 08:08:16;;;;;;;;;;;5.60;99.90;;;;;;5132430;27;19919;-70
2021/12/28 08:10:42;;;;;;;;;;;5.60;99.90;;;;;;5128118;27;20423;-70
2021/12/28 08:13:07;;;;;;;;;;;5.60;99.90;;;;;;5132048;27;19923;-70
2021/12/28 08:15:33;;;;;;;;;;;5.70;99.90;;;;;;5125776;27;19958;-70
2021/12/28 08:17:58;;;;;;;;;;;5.70;99.90;;;;;;5121416;27;20338;-71
2021/12/28 08:20:24;;;;;;;;;;;5.70;99.90;;;;;;5130999;27;19923;-70
2021/12/28 08:22:49;;;;;;;;;;;5.70;99.90;;;;;;5117395;27;20021;-71
2021/12/28 08:25:16;;;;;;;;;;;5.70;99.90;;;;;;5126203;27;19928;-72
2021/12/28 08:27:42;;;;;;;;;;;5.70;99.90;;;;;;5118530;27;20026;-71
2021/12/28 08:30:08;;;;;;;;;;;5.70;99.90;;;;;;5122935;27;20022;-72
2021/12/28 08:32:33;;;;;;;;;;;5.70;99.90;;;;;;5116662;27;20342;-72
2021/12/28 08:34:59;;;;;;;;;;;5.70;99.90;;;;;;5108218;28;19968;-72
2021/12/28 08:37:26;;;;;;;;;;;5.70;99.90;;;;;;5116209;27;20263;-72
2021/12/28 08:39:52;;;;;;;;;;;5.70;99.90;;;;;;5108982;28;20285;-73
2021/12/28 08:42:19;;;;;;;;;;;5.70;99.90;;;;;;5145601;27;20010;-73
2021/12/28 08:44:45;;;;;;;;;;;5.70;99.90;;;;;;5122066;27;19927;-73
2021/12/28 08:47:10;;;;;;;;;;;5.70;99.90;;;;;;5109829;27;19923;-73
2021/12/28 08:49:36;;;;;;;;;;;5.70;99.90;;;;;;5142146;27;19926;-73
2021/12/28 08:52:02;;;;;;;;;;;5.70;99.90;;;;;;5109142;27;20078;-74
2021/12/28 08:54:27;;;;;;;;;;;5.70;99.90;;;;;;5138874;27;19946;-74
2021/12/28 08:56:53;;;;;;;;;;;5.70;99.90;;;;;;5120568;27;19923;-72
2021/12/28 08:59:18;;;;;;;;;;;5.70;99.90;;;;;;5122636;27;19919;-72
2021/12/28 09:01:44;;;;;;;;;;;5.80;99.90;;;;;;5127196;27;19919;-72
2021/12/28 09:04:10;;;;;;;;;;;5.80;99.90;;;;;;5128223;27;19923;-72
2021/12/28 09:06:35;;;;;;;;;;;5.90;99.90;;;;;;5128381;27;20423;-72
2021/12/28 09:09:02;;;;;;;;;;;5.90;99.90;;;;;;5128018;27;20030;-72
2021/12/28 09:11:27;;;;;;;;;;;6.00;99.90;;;;;;5125874;27;19930;-72
2021/12/28 09:13:53;;;;;;;;;;;6.10;99.90;;;;;;5113786;27;19924;-72
2021/12/28 09:16:19;;;;;;;;;;;6.10;99.90;;;;;;5135362;27;19926;-72
2021/12/28 09:18:45;;;;;;;;;;;6.20;99.90;;;;;;5118007;27;19919;-71
2021/12/28 09:21:10;;;;;;;;;;;6.20;99.90;;;;;;5142772;27;19930;-69
2021/12/28 09:23:38;;;;;;;;;;;6.20;99.90;;;;;;5114386;27;21584;-69
2021/12/28 09:26:04;;;;;;;;;;;6.20;99.90;;;;;;5109003;28;20007;-69
2021/12/28 09:28:30;;;;;;;;;;;6.20;99.90;;;;;;5107474;27;19970;-70
2021/12/28 09:30:56;;;;;;;;;;;6.20;99.90;;;;;;5126348;27;19963;-70
2021/12/28 09:33:21;;;;;;;;;;;6.20;99.90;;;;;;5155133;27;19980;-69
2021/12/28 09:35:47;;;;;;;;;;;6.20;99.90;;;;;;5153950;27;19919;-69
2021/12/28 09:38:13;;;;;;;;;;;6.20;99.90;;;;;;5132944;27;20323;-70
2021/12/28 09:40:39;;;;;;;;;;;6.20;99.90;;;;;;5126815;27;19926;-71
2021/12/28 09:43:05;;;;;;;;;;;6.30;99.90;;;;;;5161407;27;20309;-71
2021/12/28 09:45:32;;;;;;;;;;;6.30;99.90;;;;;;5108796;27;19931;-72
2021/12/28 09:47:59;;;;;;;;;;;6.30;99.90;;;;;;5127406;27;20041;-71
2021/12/28 09:50:24;;;;;;;;;;;6.40;99.90;;;;;;5126051;27;20309;-72
2021/12/28 09:52:50;;;;;;;;;;;6.40;99.90;;;;;;5127226;27;19934;-72
2021/12/28 09:55:18;;;;;;;;;;;6.40;99.90;;;;;;5117395;27;19943;-73
2021/12/28 09:57:45;;;;;;;;;;;6.50;99.90;;;;;;5115760;27;20369;-73
2021/12/28 10:00:11;;;;;;;;;;;6.50;99.90;;;;;;5128733;27;19923;-73
2021/12/28 10:02:37;;;;;;;;;;;6.50;99.90;;;;;;5129417;27;19926;-72
2021/12/28 10:05:09;;;;;;;;;;;6.50;99.90;;;;;;5119712;27;19933;-75
2021/12/28 10:07:36;;;;;;;;;;;6.60;99.90;;;;;;5115655;27;20382;-71
2021/12/28 10:10:04;;;;;;;;;;;6.60;99.90;;;;;;5122767;27;19926;-70
2021/12/28 10:12:37;;;;;;;;;;;6.70;99.90;;;;;;5117924;27;20359;-72
2021/12/28 10:15:05;;;;;;;;;;;6.70;99.90;;;;;;5142375;27;20015;-74
2021/12/28 10:17:31;;;;;;;;;;;6.70;99.90;;;;;;5107634;27;19968;-71
2021/12/28 10:19:58;;;;;;;;;;;6.80;99.90;;;;;;5124976;27;19964;-73
2021/12/28 10:22:23;;;;;;;;;;;6.80;99.90;;;;;;5127184;27;19919;-72
2021/12/28 10:24:50;;;;;;;;;;;6.80;99.90;;;;;;5127089;27;20263;-73
2021/12/28 10:27:17;;;;;;;;;;;6.80;99.90;;;;;;5127102;27;19926;-72
2021/12/28 10:29:42;;;;;;;;;;;6.80;99.90;;;;;;5158709;27;19921;-72
2021/12/28 10:32:15;;;;;;;;;;;6.90;99.90;;;;;;5106504;28;19920;-73
2021/12/28 10:34:45;;;;;;;;;;;6.90;99.90;;;;;;5140702;27;20368;-72
2021/12/28 10:37:15;;;;;;;;;;;7.00;99.90;;;;;;5141266;27;20574;-72
2021/12/28 10:39:49;;;;;;;;;;;7.10;99.90;;;;;;5106952;28;19924;-73
2021/12/28 10:42:33;;;;;;;;;;;7.20;99.90;;;;;;5108449;27;19955;-72
2021/12/28 10:44:59;;;;;;;;;;;7.30;99.90;;;;;;5122857;27;20316;-71
2021/12/28 10:47:27;;;;;;;;;;;7.40;99.90;;;;;;5113298;27;19927;-72
2021/12/28 10:49:53;;;;;;;;;;;7.40;99.90;;;;;;5112994;27;20376;-72
2021/12/28 10:52:29;;;;;;;;;;;7.40;99.90;;;;;;5112478;27;19922;-70
2021/12/28 10:55:17;;;;;;;;;;;7.40;99.90;;;;;;5126925;27;19926;-70
2021/12/28 10:57:42;;;;;;;;;;;7.30;99.90;;;;;;5124936;27;20294;-71
2021/12/28 11:00:22;;;;;;;;;;;7.30;99.90;;;;;;5148888;27;19925;-70
2021/12/28 11:02:48;;;;;;;;;;;7.30;99.90;;;;;;5126752;27;19919;-72
2021/12/28 11:05:32;;;;;;;;;;;7.30;99.90;;;;;;5125627;27;19934;-71
2021/12/28 11:07:58;;;;;;;;;;;7.30;99.90;;;;;;5117958;27;19980;-72
2021/12/28 11:10:28;;;;;;;;;;;7.30;99.90;;;;;;5125644;27;19970;-70
2021/12/28 11:12:57;;;;;;;;;;;7.30;99.90;;;;;;5125549;27;19931;-71
2021/12/28 11:16:26;;;;;;;19.45;9.35;;;7.30;99.90;;;;;;5092342;27;20353;-71
2021/12/28 11:18:55;;;;;;;21.33;10.95;;;7.40;99.90;;;;;;5065653;28;20052;-71
2021/12/28 11:21:25;;;;;;;25.50;10.57;;;7.40;99.90;;;;;;5064386;28;20074;-71
2021/12/28 11:23:54;;;;;;;24.17;11.25;;;7.50;99.90;;;;;;5065384;28;20048;-73
2021/12/28 11:26:30;;;;;;;23.52;10.85;;;7.50;99.90;;;;;;5065019;28;20131;-67
2021/12/28 11:29:04;;;;;;;26.42;10.98;;;7.50;99.90;;;;;;5084059;28;20059;-70
2021/12/28 11:31:41;;;;;;;22.92;11.80;;;7.50;99.90;;;;;;5056151;28;20036;-70
2021/12/28 11:34:21;;;;;;;25.65;13.80;;;7.50;99.90;;;;;;5066292;28;20139;-71
2021/12/28 11:37:02;;;;;;;27.80;16.25;;;7.50;99.90;;;;;;5047040;28;20056;-71
2021/12/28 11:39:33;;;;;;;34.63;19.63;;;7.60;99.90;;;;;;5066257;28;20036;-72
2021/12/28 11:42:01;;;;;;;31.98;21.58;;;7.50;99.90;;;;;;5064491;28;20492;-71
2021/12/28 11:44:27;;;;;;;;;;;7.50;99.90;;;;;;5063343;28;20526;-72
2021/12/28 11:46:55;;;;;;;34.90;21.48;;;7.50;99.90;;;;;;5067660;28;19927;-72
2021/12/28 11:49:25;;;;;;;32.97;19.83;;;7.50;99.90;;;;;;5061408;28;20052;-73
2021/12/28 11:51:52;;;;;;;29.60;19.05;;;7.50;99.90;;;;;;5067396;28;20044;-73
2021/12/28 11:54:19;;;;;;;31.17;18.50;;;7.50;99.90;;;;;;5057496;28;20040;-73
2021/12/28 11:56:52;;;;;;;29.83;18.73;;;7.50;99.90;;;;;;5047721;28;20057;-73
2021/12/28 11:59:23;;;;;;;34.38;19.40;;;7.50;99.90;;;;;;5061241;28;20048;-73
2021/12/28 12:01:52;;;;;;;35.05;20.25;;;7.50;99.90;;;;;;5080904;28;20052;-72
2021/12/28 12:04:29;;;;;;;36.08;19.65;;;7.50;99.90;;;;;;5067417;28;20502;-72
2021/12/28 12:07:05;;;;;;;35.90;18.58;;;7.50;99.90;;;;;;5063845;28;20037;-72
2021/12/28 12:09:55;;;;;;;33.60;18.48;;;7.50;99.90;;;;;;5062405;28;20404;-72
2021/12/28 12:12:30;;;;;;;33.95;19.05;;;7.50;99.90;;;;;;5066030;28;20399;-72
2021/12/28 12:14:58;;;;;;;33.90;19.05;;;7.50;99.90;;;;;;5065149;28;20059;-72
2021/12/28 12:17:39;;;;;;;34.17;18.73;;;7.50;99.90;;;;;;5062149;28;20124;-71
2021/12/28 12:20:17;;;;;;;33.03;18.90;;;7.50;99.90;;;;;;5058457;28;20064;-73
2021/12/28 12:22:51;;;;;;;30.10;20.40;;;7.60;99.90;;;;;;5066286;28;21795;-70
2021/12/28 12:25:29;;;;;;;33.25;19.88;;;7.60;99.90;;;;;;5065113;28;20102;-68
2021/12/28 12:28:09;;;;;;;40.45;21.35;;;7.60;99.90;;;;;;5070377;28;20059;-70
2021/12/28 12:30:34;;;;;;;35.05;21.50;;;7.60;99.90;;;;;;5052361;28;20044;-69
2021/12/28 12:33:06;;;;;;;33.55;20.88;;;7.60;99.90;;;;;;5051481;28;20044;-69
2021/12/28 12:36:11;;;;;;;37.53;21.95;;;7.60;99.90;;;;;;5048521;28;20053;-70
2021/12/28 12:38:37;;;;;;;38.25;22.25;;;7.60;99.90;;;;;;5010621;28;20053;-70
2021/12/28 12:41:14;;;;;;;34.92;23.83;;;7.60;99.90;;;;;;5042373;28;20080;-70
2021/12/28 12:43:50;;;;;;;35.35;22.85;;;7.60;99.90;;;;;;5051349;28;20048;-70
2021/12/28 12:46:21;;;;;;;32.85;22.58;;;7.60;99.90;;;;;;5053189;28;20046;-70
2021/12/28 12:48:46;;;;;;;37.25;23.92;;;7.60;99.90;;;;;;5049582;28;20400;-71
2021/12/28 12:51:21;;;;;;;35.30;23.90;;;7.60;99.90;;;;;;5050093;28;20040;-71
2021/12/28 12:54:02;;;;;;;33.97;22.45;;;7.70;99.90;;;;;;5042085;28;20040;-70
2021/12/28 12:56:31;;;;;;;35.30;23.65;;;7.60;99.90;;;;;;5053118;28;20051;-68
2021/12/28 12:59:00;;;;;;;38.05;24.10;;;7.60;99.90;;;;;;5047784;28;20425;-68
2021/12/28 13:01:30;;;;;;;37.80;24.88;;;7.60;99.90;;;;;;5052604;28;20044;-69
2021/12/28 13:04:01;;;;;;;39.97;26.02;;;7.60;99.90;;;;;;5053277;28;20037;-69
2021/12/28 13:06:41;;;;;;;38.53;26.38;;;7.70;99.90;;;;;;5069073;28;20047;-69
2021/12/28 13:09:14;;;;;;;39.45;25.17;;;7.70;99.90;;;;;;5051888;28;20044;-71
2021/12/28 13:11:42;;;;;;;42.03;26.35;;;7.70;99.90;;;;;;5051931;28;20115;-72
2021/12/28 13:14:08;;;;;;;44.58;28.23;;;7.70;99.90;;;;;;5051416;28;20043;-70
2021/12/28 13:16:35;;;;;;;42.75;29.00;;;7.70;99.90;;;;;;5053003;28;20080;-69
2021/12/28 13:19:12;;;;;;;50.97;28.83;;;7.70;99.90;;;;;;5053871;28;20089;-71
2021/12/28 13:21:39;;;;;;;46.22;28.80;;;7.70;99.90;;;;;;5051332;28;20052;-70
2021/12/28 13:24:09;;;;;;;47.00;29.20;;;7.70;99.90;;;;;;5053028;28;20123;-70
2021/12/28 13:26:43;;;;;;;44.05;28.33;;;7.70;99.90;;;;;;5053595;28;20044;-70
2021/12/28 13:29:09;;;;;;;51.53;29.63;;;7.70;99.90;;;;;;5052641;28;20048;-70
2021/12/28 13:31:35;;;;;;;50.53;29.90;;;7.70;99.90;;;;;;5052570;28;20048;-69
2021/12/28 13:34:01;;;;;;;47.30;30.13;;;7.70;99.90;;;;;;5048770;28;20113;-69
2021/12/28 13:36:30;;;;;;;46.05;30.50;;;7.70;99.90;;;;;;5043655;28;20475;-70
2021/12/28 13:39:06;;;;;;;50.08;31.90;;;7.70;99.90;;;;;;5046867;28;20037;-69
2021/12/28 13:41:31;;;;;;;50.10;30.67;;;7.70;99.90;;;;;;5051857;28;20542;-69
2021/12/28 13:44:05;;;;;;;49.33;30.35;;;7.70;99.90;;;;;;5050531;28;20132;-69
2021/12/28 13:46:31;;;;;;;49.22;30.75;;;7.70;99.90;;;;;;5041004;28;20047;-69
2021/12/28 13:49:00;;;;;;;51.03;30.90;;;7.70;99.90;;;;;;5066715;28;20052;-70
2021/12/28 13:51:27;;;;;;;46.05;30.23;;;7.70;99.90;;;;;;5050971;28;20048;-71
2021/12/28 13:54:04;;;;;;;50.13;32.00;;;7.70;99.90;;;;;;5050669;28;20091;-70
2021/12/28 13:56:35;;;;;;;47.95;30.83;;;7.80;99.90;;;;;;5069630;28;20052;-71
2021/12/28 13:59:08;;;;;;;49.03;32.42;;;7.80;99.90;;;;;;5053821;28;20041;-70
2021/12/28 14:01:39;;;;;;;49.60;32.25;;;7.80;99.90;;;;;;5068956;28;20052;-70
2021/12/28 14:04:05;;;;;;;52.33;32.70;;;7.80;99.90;;;;;;5051544;28;20391;-70
2021/12/28 14:06:34;;;;;;;56.35;34.47;;;7.80;99.90;;;;;;5051407;28;20055;-70
2021/12/28 14:09:05;;;;;;;49.70;32.50;;;7.80;99.90;;;;;;5050414;28;20041;-69